createdAt,value
2022-08-22T00:00:42.824Z,19.87
2022-08-22T00:01:40.155Z,19.87
2022-08-22T00:02:40.230Z,19.87
2022-08-22T00:02:56.460Z,21.79
2022-08-22T00:02:56.460Z,22.44
2022-08-22T00:03:01.450Z,21.40
2022-08-22T00:03:07.725Z,22.23
2022-08-22T00:03:08.059Z,20.16
2022-08-22T00:03:09.768Z,20.30
2022-08-22T00:03:40.230Z,19.89
2022-08-22T00:04:40.268Z,19.85
2022-08-22T00:05:40.304Z,19.80
2022-08-22T00:06:40.343Z,19.86
2022-08-22T00:07:40.378Z,19.80
2022-08-22T00:08:40.417Z,19.79
2022-08-22T00:09:40.453Z,19.89
2022-08-22T00:10:40.489Z,19.80
2022-08-22T00:11:40.524Z,19.87
2022-08-22T00:12:40.561Z,19.82
2022-08-22T00:13:40.600Z,19.82
2022-08-22T00:14:40.637Z,19.82
2022-08-22T00:15:43.085Z,19.76
2022-08-22T00:16:40.709Z,19.78
2022-08-22T00:17:40.750Z,19.78
2022-08-22T00:18:40.787Z,19.79
2022-08-22T00:19:40.822Z,19.78
2022-08-22T00:20:40.861Z,19.79
2022-08-22T00:21:40.897Z,19.78
2022-08-22T00:22:40.931Z,19.78
2022-08-22T00:23:40.969Z,19.78
2022-08-22T00:24:41.008Z,19.65
2022-08-22T00:25:41.042Z,19.75
2022-08-22T00:26:45.062Z,19.75
2022-08-22T00:27:44.874Z,19.75
2022-08-22T00:28:41.172Z,19.71
2022-08-22T00:29:41.189Z,19.76
2022-08-22T00:30:41.226Z,19.71
2022-08-22T00:31:41.262Z,19.72
2022-08-22T00:32:41.316Z,19.64
2022-08-22T00:33:41.346Z,19.64
2022-08-22T00:34:41.373Z,19.72
2022-08-22T00:35:44.998Z,19.78
2022-08-22T00:36:41.447Z,19.70
2022-08-22T00:37:41.487Z,19.67
2022-08-22T00:38:41.522Z,19.67
2022-08-22T00:39:41.574Z,19.60
2022-08-22T00:40:41.597Z,19.64
2022-08-22T00:41:41.639Z,19.64
2022-08-22T00:42:41.670Z,19.61
2022-08-22T00:43:41.708Z,19.53
2022-08-22T00:44:41.744Z,19.55
2022-08-22T00:45:41.781Z,19.53
2022-08-22T00:46:41.821Z,19.50
2022-08-22T00:47:41.854Z,19.60
2022-08-22T00:48:41.890Z,19.57
2022-08-22T00:49:41.929Z,19.47
2022-08-22T00:50:41.964Z,19.58
2022-08-22T00:51:42.001Z,19.60
2022-08-22T00:52:42.039Z,19.52
2022-08-22T00:53:42.074Z,19.53
2022-08-22T00:54:42.110Z,19.53
2022-08-22T00:55:42.148Z,19.58
2022-08-22T00:56:42.188Z,19.53
2022-08-22T00:57:42.222Z,19.67
2022-08-22T00:58:42.259Z,19.55
2022-08-22T00:59:42.295Z,19.53
2022-08-22T01:00:42.336Z,19.53
2022-08-22T01:01:42.408Z,19.57
2022-08-22T01:02:42.416Z,19.52
2022-08-22T01:03:42.443Z,19.42
2022-08-22T01:04:42.481Z,19.45
2022-08-22T01:05:42.520Z,19.43
2022-08-22T01:06:42.556Z,19.47
2022-08-22T01:07:42.590Z,19.47
2022-08-22T01:08:42.628Z,19.34
2022-08-22T01:09:42.664Z,19.38
2022-08-22T01:10:42.701Z,19.39
2022-08-22T01:11:42.737Z,19.38
2022-08-22T01:12:42.782Z,19.38
2022-08-22T01:13:42.810Z,19.34
2022-08-22T01:14:42.851Z,19.40
2022-08-22T01:15:42.883Z,19.31
2022-08-22T01:16:42.920Z,19.25
2022-08-22T01:17:42.957Z,19.35
2022-08-22T01:18:42.994Z,19.27
2022-08-22T01:19:43.029Z,19.32
2022-08-22T01:20:43.070Z,19.32
2022-08-22T01:21:43.104Z,19.25
2022-08-22T01:22:43.142Z,19.23
2022-08-22T01:23:43.176Z,19.25
2022-08-22T01:24:43.216Z,19.28
2022-08-22T01:25:43.256Z,19.24
2022-08-22T01:26:44.011Z,19.16
2022-08-22T01:27:43.325Z,19.24
2022-08-22T01:28:43.362Z,19.24
2022-08-22T01:29:43.404Z,19.21
2022-08-22T01:30:43.436Z,19.17
2022-08-22T01:31:43.479Z,19.21
2022-08-22T01:32:43.509Z,19.17
2022-08-22T01:33:43.547Z,19.21
2022-08-22T01:34:43.581Z,19.21
2022-08-22T01:35:43.620Z,19.12
2022-08-22T01:36:43.659Z,19.21
2022-08-22T01:37:43.995Z,19.13
2022-08-22T01:38:43.729Z,19.15
2022-08-22T01:39:43.797Z,19.07
2022-08-22T01:40:53.779Z,19.12
2022-08-22T01:41:43.839Z,19.10
2022-08-22T01:42:43.877Z,19.07
2022-08-22T01:43:59.343Z,19.09
2022-08-22T01:44:43.950Z,19.07
2022-08-22T01:45:43.988Z,19.10
2022-08-22T01:46:44.021Z,19.12
2022-08-22T01:47:44.060Z,19.12
2022-08-22T01:48:44.096Z,19.09
2022-08-22T01:49:44.137Z,19.10
2022-08-22T01:50:44.173Z,19.12
2022-08-22T01:51:44.214Z,18.97
2022-08-22T01:52:44.243Z,19.02
2022-08-22T01:53:44.280Z,19.02
2022-08-22T01:54:44.314Z,19.06
2022-08-22T01:55:44.352Z,19.05
2022-08-22T01:56:44.389Z,18.99
2022-08-22T01:57:44.430Z,18.96
2022-08-22T01:58:44.462Z,18.99
2022-08-22T01:59:44.501Z,18.93
2022-08-22T02:00:44.562Z,19.05
2022-08-22T02:01:44.574Z,19.02
2022-08-22T02:02:44.607Z,19.01
2022-08-22T02:03:44.646Z,18.93
2022-08-22T02:04:44.682Z,19.02
2022-08-22T02:05:44.720Z,18.91
2022-08-22T02:06:44.759Z,18.89
2022-08-22T02:07:44.806Z,18.94
2022-08-22T02:08:44.829Z,18.89
2022-08-22T02:09:44.867Z,18.93
2022-08-22T02:10:44.899Z,18.94
2022-08-22T02:11:44.936Z,18.93
2022-08-22T02:12:44.977Z,18.89
2022-08-22T02:13:45.011Z,18.86
2022-08-22T02:14:45.052Z,18.94
2022-08-22T02:15:45.097Z,18.82
2022-08-22T02:16:45.123Z,18.84
2022-08-22T02:17:45.158Z,18.82
2022-08-22T02:18:45.192Z,18.82
2022-08-22T02:19:45.231Z,18.76
2022-08-22T02:20:45.267Z,18.78
2022-08-22T02:21:45.309Z,18.87
2022-08-22T02:22:45.339Z,18.83
2022-08-22T02:23:45.380Z,18.76
2022-08-22T02:24:45.412Z,18.90
2022-08-22T02:25:45.451Z,18.78
2022-08-22T02:26:45.484Z,18.82
2022-08-22T02:27:45.523Z,18.78
2022-08-22T02:28:56.556Z,18.78
2022-08-22T02:29:45.602Z,18.78
2022-08-22T02:30:45.633Z,18.83
2022-08-22T02:31:45.670Z,18.82
2022-08-22T02:32:45.705Z,18.84
2022-08-22T02:33:45.741Z,18.89
2022-08-22T02:34:45.776Z,18.79
2022-08-22T02:35:45.813Z,18.86
2022-08-22T02:36:45.849Z,18.86
2022-08-22T02:37:45.894Z,18.91
2022-08-22T02:38:45.922Z,18.75
2022-08-22T02:39:45.996Z,18.84
2022-08-22T02:40:45.997Z,18.86
2022-08-22T02:41:46.032Z,18.84
2022-08-22T02:42:46.068Z,18.82
2022-08-22T02:43:46.116Z,18.83
2022-08-22T02:44:46.143Z,18.83
2022-08-22T02:45:46.205Z,18.78
2022-08-22T02:46:46.213Z,18.74
2022-08-22T02:47:46.251Z,18.78
2022-08-22T02:48:46.286Z,18.83
2022-08-22T02:49:46.333Z,18.75
2022-08-22T02:50:46.359Z,18.82
2022-08-22T02:51:46.412Z,18.76
2022-08-22T02:52:46.434Z,18.74
2022-08-22T02:53:46.484Z,18.79
2022-08-22T02:54:46.504Z,18.83
2022-08-22T02:55:46.544Z,18.75
2022-08-22T02:56:46.580Z,18.86
2022-08-22T02:57:47.197Z,18.82
2022-08-22T02:58:46.650Z,18.86
2022-08-22T02:59:46.694Z,18.82
2022-08-22T03:00:46.759Z,18.82
2022-08-22T03:01:46.761Z,18.82
2022-08-22T03:02:46.798Z,18.79
2022-08-22T03:03:46.834Z,18.78
2022-08-22T03:04:46.870Z,18.83
2022-08-22T03:05:46.914Z,18.84
2022-08-22T03:06:46.947Z,18.82
2022-08-22T03:07:46.980Z,18.75
2022-08-22T03:08:47.607Z,18.75
2022-08-22T03:09:47.059Z,18.79
2022-08-22T03:10:47.091Z,18.72
2022-08-22T03:11:47.126Z,18.83
2022-08-22T03:12:47.165Z,18.79
2022-08-22T03:13:47.202Z,18.76
2022-08-22T03:14:47.233Z,18.83
2022-08-22T03:15:49.345Z,18.79
2022-08-22T03:16:47.309Z,18.79
2022-08-22T03:17:47.345Z,18.78
2022-08-22T03:18:47.381Z,18.78
2022-08-22T03:19:47.420Z,18.83
2022-08-22T03:20:47.455Z,18.75
2022-08-22T03:21:47.491Z,18.74
2022-08-22T03:22:47.524Z,18.75
2022-08-22T03:23:47.564Z,18.78
2022-08-22T03:24:47.599Z,18.82
2022-08-22T03:25:47.637Z,18.78
2022-08-22T03:26:47.671Z,18.83
2022-08-22T03:27:49.997Z,18.79
2022-08-22T03:28:59.513Z,18.79
2022-08-22T03:29:47.783Z,18.83
2022-08-22T03:30:47.817Z,18.75
2022-08-22T03:31:47.869Z,18.82
2022-08-22T03:32:47.893Z,18.82
2022-08-22T03:33:47.929Z,18.83
2022-08-22T03:34:47.963Z,18.79
2022-08-22T03:35:48.001Z,18.78
2022-08-22T03:36:48.038Z,18.82
2022-08-22T03:37:48.073Z,18.74
2022-08-22T03:38:48.108Z,18.75
2022-08-22T03:39:48.191Z,18.76
2022-08-22T03:40:48.182Z,18.75
2022-08-22T03:41:48.218Z,18.72
2022-08-22T03:42:48.254Z,18.69
2022-08-22T03:43:48.292Z,18.75
2022-08-22T03:44:48.329Z,18.78
2022-08-22T03:45:48.364Z,18.68
2022-08-22T03:46:48.404Z,18.72
2022-08-22T03:47:48.437Z,18.68
2022-08-22T03:48:48.473Z,18.71
2022-08-22T03:49:48.510Z,18.72
2022-08-22T03:50:48.546Z,18.75
2022-08-22T03:51:48.585Z,18.66
2022-08-22T03:52:48.619Z,18.74
2022-08-22T03:53:48.656Z,18.68
2022-08-22T03:54:48.694Z,18.68
2022-08-22T03:55:48.728Z,18.72
2022-08-22T03:56:48.766Z,18.74
2022-08-22T03:57:48.807Z,18.59
2022-08-22T03:58:48.839Z,18.72
2022-08-22T03:59:48.873Z,18.72
2022-08-22T04:00:48.952Z,18.69
2022-08-22T04:01:48.946Z,18.72
2022-08-22T04:02:48.987Z,18.74
2022-08-22T04:03:49.018Z,18.66
2022-08-22T04:04:49.058Z,18.66
2022-08-22T04:05:49.135Z,18.69
2022-08-22T04:06:49.131Z,18.64
2022-08-22T04:07:49.169Z,18.60
2022-08-22T04:08:49.206Z,18.64
2022-08-22T04:09:49.238Z,18.59
2022-08-22T04:10:49.276Z,18.66
2022-08-22T04:11:49.310Z,18.71
2022-08-22T04:12:49.354Z,18.60
2022-08-22T04:13:49.383Z,18.72
2022-08-22T04:14:49.421Z,18.69
2022-08-22T04:15:49.456Z,18.65
2022-08-22T04:16:49.496Z,18.66
2022-08-22T04:17:49.529Z,18.74
2022-08-22T04:18:49.567Z,18.64
2022-08-22T04:19:49.633Z,18.72
2022-08-22T04:20:49.640Z,18.66
2022-08-22T04:21:49.683Z,18.64
2022-08-22T04:22:49.713Z,18.64
2022-08-22T04:23:49.747Z,18.56
2022-08-22T04:24:52.043Z,18.56
2022-08-22T04:25:49.821Z,18.65
2022-08-22T04:26:49.861Z,18.56
2022-08-22T04:27:49.892Z,18.60
2022-08-22T04:28:49.929Z,18.54
2022-08-22T04:29:49.965Z,18.66
2022-08-22T04:30:50.003Z,18.56
2022-08-22T04:31:50.037Z,18.60
2022-08-22T04:32:50.078Z,18.57
2022-08-22T04:33:50.113Z,18.60
2022-08-22T04:34:50.149Z,18.57
2022-08-22T04:35:50.195Z,18.62
2022-08-22T04:36:50.220Z,18.60
2022-08-22T04:37:50.256Z,18.60
2022-08-22T04:38:50.293Z,18.69
2022-08-22T04:39:50.386Z,18.68
2022-08-22T04:40:50.367Z,18.72
2022-08-22T04:41:50.402Z,18.68
2022-08-22T04:42:50.443Z,18.72
2022-08-22T04:43:50.481Z,18.62
2022-08-22T04:44:50.512Z,18.72
2022-08-22T04:45:50.549Z,18.66
2022-08-22T04:46:50.595Z,18.74
2022-08-22T04:47:54.231Z,18.72
2022-08-22T04:48:50.658Z,18.66
2022-08-22T04:49:50.692Z,18.65
2022-08-22T04:50:50.731Z,18.60
2022-08-22T04:51:50.765Z,18.66
2022-08-22T04:52:50.806Z,18.62
2022-08-22T04:53:50.838Z,18.60
2022-08-22T04:54:50.875Z,18.66
2022-08-22T04:55:50.921Z,18.56
2022-08-22T04:56:50.948Z,18.60
2022-08-22T04:57:50.983Z,18.68
2022-08-22T04:58:51.021Z,18.65
2022-08-22T04:59:51.170Z,18.72
2022-08-22T05:00:51.096Z,18.74
2022-08-22T05:01:51.155Z,18.79
2022-08-22T05:02:51.166Z,18.79
2022-08-22T05:03:51.209Z,18.76
2022-08-22T05:04:51.238Z,18.74
2022-08-22T05:05:51.276Z,18.76
2022-08-22T05:06:51.310Z,18.78
2022-08-22T05:07:51.346Z,18.78
2022-08-22T05:08:53.929Z,18.68
2022-08-22T05:09:51.420Z,18.74
2022-08-22T05:10:51.461Z,18.76
2022-08-22T05:11:51.493Z,18.74
2022-08-22T05:12:51.531Z,18.76
2022-08-22T05:13:51.566Z,18.76
2022-08-22T05:14:51.602Z,18.74
2022-08-22T05:15:51.674Z,18.74
2022-08-22T05:16:58.900Z,18.74
2022-08-22T05:18:55.780Z,18.71
2022-08-22T05:19:55.761Z,18.76
2022-08-22T05:21:59.829Z,18.84
2022-08-22T05:22:59.849Z,18.74
2022-08-22T05:24:52.866Z,18.78
2022-08-22T05:25:52.860Z,18.83
2022-08-22T05:27:57.040Z,18.83
2022-08-22T05:28:56.944Z,18.84
2022-08-22T05:31:01.041Z,18.76
2022-08-22T05:32:01.030Z,18.86
2022-08-22T05:34:05.084Z,18.86
2022-08-22T05:35:05.121Z,18.89
2022-08-22T05:37:09.174Z,18.93
2022-08-22T05:38:09.202Z,18.99
2022-08-22T05:40:13.379Z,19.02
2022-08-22T05:41:13.356Z,18.90
2022-08-22T05:43:17.495Z,19.06
2022-08-22T05:44:17.520Z,19.01
2022-08-22T05:46:21.587Z,18.89
2022-08-22T05:47:21.618Z,19.05
2022-08-22T05:49:25.668Z,18.96
2022-08-22T05:50:25.701Z,18.93
2022-08-22T05:52:29.757Z,18.96
2022-08-22T05:53:29.784Z,19.01
2022-08-22T05:55:22.763Z,19.02
2022-08-22T05:56:22.783Z,19.02
2022-08-22T05:58:26.877Z,19.13
2022-08-22T05:59:26.870Z,19.09
2022-08-22T06:01:30.959Z,19.06
2022-08-22T06:02:30.952Z,19.05
2022-08-22T06:04:34.999Z,19.17
2022-08-22T06:05:35.032Z,19.17
2022-08-22T06:06:35.066Z,19.23
2022-08-22T06:07:35.114Z,19.21
2022-08-22T06:08:35.139Z,19.30
2022-08-22T06:09:35.471Z,19.30
2022-08-22T06:10:35.214Z,19.32
2022-08-22T06:11:35.250Z,19.28
2022-08-22T06:12:35.285Z,19.38
2022-08-22T06:13:35.321Z,19.30
2022-08-22T06:14:35.364Z,19.35
2022-08-22T06:15:35.395Z,19.43
2022-08-22T06:16:35.430Z,19.27
2022-08-22T06:17:35.485Z,19.45
2022-08-22T06:18:35.505Z,19.35
2022-08-22T06:19:35.543Z,19.47
2022-08-22T06:20:35.580Z,19.50
2022-08-22T06:21:38.552Z,19.52
2022-08-22T06:22:35.651Z,19.57
2022-08-22T06:23:35.687Z,19.61
2022-08-22T06:24:35.724Z,19.67
2022-08-22T06:25:35.759Z,19.72
2022-08-22T06:26:35.799Z,19.64
2022-08-22T06:27:35.835Z,19.67
2022-08-22T06:28:35.871Z,19.68
2022-08-22T06:29:35.906Z,19.83
2022-08-22T06:30:35.947Z,19.80
2022-08-22T06:31:35.981Z,19.85
2022-08-22T06:32:58.480Z,19.87
2022-08-22T06:33:36.053Z,19.90
2022-08-22T06:34:36.091Z,19.85
2022-08-22T06:35:36.127Z,19.95
2022-08-22T06:36:36.165Z,19.97
2022-08-22T06:37:36.200Z,20.02
2022-08-22T06:38:36.249Z,20.01
2022-08-22T06:39:36.275Z,20.04
2022-08-22T06:40:36.328Z,20.00
2022-08-22T06:41:36.350Z,20.15
2022-08-22T06:42:36.386Z,20.22
2022-08-22T06:43:36.424Z,20.17
2022-08-22T06:44:36.460Z,20.12
2022-08-22T06:45:36.501Z,20.15
2022-08-22T06:46:36.540Z,20.22
2022-08-22T06:47:36.573Z,20.30
2022-08-22T06:48:36.610Z,20.30
2022-08-22T06:49:36.643Z,20.38
2022-08-22T06:50:36.682Z,20.40
2022-08-22T06:51:36.719Z,20.42
2022-08-22T06:52:36.754Z,20.46
2022-08-22T06:53:36.792Z,20.50
2022-08-22T06:54:36.828Z,20.48
2022-08-22T06:55:36.871Z,20.54
2022-08-22T06:56:36.915Z,20.60
2022-08-22T06:57:36.939Z,20.57
2022-08-22T06:58:36.978Z,20.63
2022-08-22T06:59:37.023Z,20.64
2022-08-22T07:00:37.051Z,20.76
2022-08-22T07:01:37.115Z,20.73
2022-08-22T07:02:37.126Z,20.82
2022-08-22T07:03:37.172Z,20.81
2022-08-22T07:04:37.201Z,20.90
2022-08-22T07:05:37.237Z,20.85
2022-08-22T07:06:37.284Z,20.83
2022-08-22T07:07:37.314Z,20.85
2022-08-22T07:08:39.293Z,20.97
2022-08-22T07:09:37.390Z,20.96
2022-08-22T07:10:37.424Z,21.00
2022-08-22T07:11:37.461Z,21.01
2022-08-22T07:12:37.501Z,21.09
2022-08-22T07:13:37.532Z,21.06
2022-08-22T07:14:37.573Z,21.18
2022-08-22T07:15:37.610Z,21.15
2022-08-22T07:16:37.646Z,21.26
2022-08-22T07:17:40.549Z,21.31
2022-08-22T07:18:37.723Z,21.37
2022-08-22T07:19:37.759Z,21.42
2022-08-22T07:20:37.798Z,21.48
2022-08-22T07:21:37.832Z,21.42
2022-08-22T07:22:37.873Z,21.51
2022-08-22T07:23:37.907Z,21.59
2022-08-22T07:24:37.945Z,21.49
2022-08-22T07:25:37.983Z,21.75
2022-08-22T07:26:38.031Z,21.79
2022-08-22T07:27:38.057Z,21.81
2022-08-22T07:28:51.155Z,21.85
2022-08-22T07:29:38.132Z,21.96
2022-08-22T07:30:38.174Z,21.85
2022-08-22T07:31:38.221Z,21.91
2022-08-22T07:32:38.245Z,21.96
2022-08-22T07:33:38.282Z,21.98
2022-08-22T07:34:38.323Z,21.99
2022-08-22T07:35:38.359Z,22.11
2022-08-22T07:36:38.403Z,21.99
2022-08-22T07:37:38.432Z,22.06
2022-08-22T07:38:38.471Z,22.11
2022-08-22T07:39:38.543Z,22.09
2022-08-22T07:40:38.550Z,22.14
2022-08-22T07:41:38.585Z,22.23
2022-08-22T07:42:38.622Z,22.24
2022-08-22T07:43:38.659Z,22.29
2022-08-22T07:44:38.697Z,22.30
2022-08-22T07:45:38.734Z,22.20
2022-08-22T07:46:38.778Z,22.38
2022-08-22T07:47:38.811Z,22.31
2022-08-22T07:48:59.311Z,22.35
2022-08-22T07:49:38.885Z,22.44
2022-08-22T07:50:38.926Z,22.35
2022-08-22T07:51:38.963Z,22.44
2022-08-22T07:52:39.002Z,22.49
2022-08-22T07:53:39.040Z,22.51
2022-08-22T07:54:39.077Z,22.60
2022-08-22T07:55:42.195Z,22.54
2022-08-22T07:56:39.153Z,22.60
2022-08-22T07:57:39.191Z,22.66
2022-08-22T07:58:39.228Z,22.60
2022-08-22T07:59:39.268Z,22.67
2022-08-22T08:00:39.306Z,22.74
2022-08-22T08:01:39.369Z,22.72
2022-08-22T08:02:39.380Z,22.78
2022-08-22T08:03:39.419Z,22.85
2022-08-22T08:04:40.559Z,22.82
2022-08-22T08:05:39.493Z,22.85
2022-08-22T08:06:39.533Z,22.97
2022-08-22T08:07:39.571Z,22.97
2022-08-22T08:08:39.610Z,23.00
2022-08-22T08:09:39.645Z,23.07
2022-08-22T08:10:39.700Z,23.11
2022-08-22T08:11:39.725Z,23.09
2022-08-22T08:12:39.761Z,23.18
2022-08-22T08:13:39.800Z,23.26
2022-08-22T08:14:39.846Z,23.23
2022-08-22T08:15:39.918Z,23.37
2022-08-22T08:16:39.933Z,23.39
2022-08-22T08:17:39.964Z,23.42
2022-08-22T08:18:39.995Z,23.42
2022-08-22T08:19:40.032Z,23.56
2022-08-22T08:20:40.080Z,23.57
2022-08-22T08:21:40.106Z,23.62
2022-08-22T08:22:40.147Z,23.77
2022-08-22T08:23:40.183Z,23.72
2022-08-22T08:24:43.104Z,23.87
2022-08-22T08:25:40.259Z,23.86
2022-08-22T08:26:40.302Z,23.92
2022-08-22T08:27:40.336Z,23.81
2022-08-22T08:28:40.376Z,23.81
2022-08-22T08:29:40.412Z,23.99
2022-08-22T08:30:40.455Z,23.99
2022-08-22T08:31:44.810Z,24.09
2022-08-22T08:32:40.529Z,24.05
2022-08-22T08:33:40.568Z,24.11
2022-08-22T08:34:40.607Z,24.15
2022-08-22T08:36:01.911Z,24.14
2022-08-22T08:36:40.683Z,24.15
2022-08-22T08:37:40.724Z,24.30
2022-08-22T08:38:40.763Z,24.23
2022-08-22T08:39:40.852Z,24.23
2022-08-22T08:40:40.838Z,24.33
2022-08-22T08:41:40.877Z,24.33
2022-08-22T08:42:40.918Z,24.36
2022-08-22T08:43:41.017Z,24.34
2022-08-22T08:44:40.992Z,24.45
2022-08-22T08:45:41.032Z,24.49
2022-08-22T08:46:41.070Z,24.48
2022-08-22T08:47:41.110Z,24.61
2022-08-22T08:48:41.148Z,24.59
2022-08-22T08:49:42.872Z,24.61
2022-08-22T08:50:41.227Z,24.66
2022-08-22T08:51:41.266Z,24.74
2022-08-22T08:52:41.305Z,24.74
2022-08-22T08:53:43.282Z,24.71
2022-08-22T08:54:41.382Z,24.74
2022-08-22T08:55:41.424Z,24.80
2022-08-22T08:57:41.498Z,24.89
2022-08-22T08:58:41.539Z,24.89
2022-08-22T08:59:44.263Z,24.87
2022-08-22T09:00:41.616Z,24.87
2022-08-22T09:01:41.721Z,24.89
2022-08-22T09:02:42.533Z,24.93
2022-08-22T09:03:41.812Z,24.98
2022-08-22T09:04:41.773Z,25.02
2022-08-22T09:05:41.811Z,24.98
2022-08-22T09:06:42.517Z,24.99
2022-08-22T09:07:41.901Z,25.04
2022-08-22T09:08:41.929Z,24.99
2022-08-22T09:09:41.967Z,25.08
2022-08-22T09:10:42.009Z,25.09
2022-08-22T09:11:42.046Z,25.12
2022-08-22T09:12:52.213Z,25.14
2022-08-22T09:13:42.124Z,25.14
2022-08-22T09:14:44.393Z,25.17
2022-08-22T09:15:42.276Z,25.09
2022-08-22T09:16:45.048Z,25.22
2022-08-22T09:17:42.285Z,25.17
2022-08-22T09:18:42.322Z,25.24
2022-08-22T09:19:42.360Z,25.24
2022-08-22T09:20:42.401Z,25.20
2022-08-22T09:21:42.443Z,25.24
2022-08-22T09:22:50.787Z,25.29
2022-08-22T09:23:42.517Z,25.36
2022-08-22T09:24:42.561Z,25.36
2022-08-22T09:25:42.600Z,25.34
2022-08-22T09:26:42.650Z,25.30
2022-08-22T09:27:42.679Z,25.34
2022-08-22T09:28:42.761Z,25.31
2022-08-22T09:29:54.714Z,25.31
2022-08-22T09:30:42.862Z,25.36
2022-08-22T09:31:48.339Z,25.39
2022-08-22T09:32:42.872Z,25.45
2022-08-22T09:33:42.911Z,25.48
2022-08-22T09:34:42.952Z,25.48
2022-08-22T09:35:42.998Z,25.53
2022-08-22T09:36:43.090Z,25.56
2022-08-22T09:37:43.074Z,25.60
2022-08-22T09:38:47.900Z,25.63
2022-08-22T09:39:43.166Z,25.67
2022-08-22T09:40:43.192Z,25.67
2022-08-22T09:41:43.241Z,25.67
2022-08-22T09:42:55.292Z,25.78
2022-08-22T09:43:45.055Z,25.83
2022-08-22T09:44:43.840Z,25.85
2022-08-22T09:45:43.387Z,25.83
2022-08-22T09:46:43.424Z,25.97
2022-08-22T09:47:43.467Z,25.93
2022-08-22T09:48:43.503Z,26.00
2022-08-22T09:49:43.559Z,25.96
2022-08-22T09:50:43.604Z,26.09
2022-08-22T09:51:43.625Z,26.23
2022-08-22T09:52:43.663Z,26.23
2022-08-22T09:53:43.706Z,26.24
2022-08-22T09:54:43.744Z,26.29
2022-08-22T09:55:43.806Z,26.32
2022-08-22T09:56:43.821Z,26.39
2022-08-22T09:57:43.864Z,26.41
2022-08-22T09:58:43.899Z,26.44
2022-08-22T09:59:43.941Z,26.42
2022-08-22T10:00:44.018Z,26.49
2022-08-22T10:01:44.020Z,26.57
2022-08-22T10:02:44.077Z,26.53
2022-08-22T10:03:44.130Z,26.49
2022-08-22T10:04:44.145Z,26.49
2022-08-22T10:05:45.047Z,26.57
2022-08-22T10:06:44.221Z,26.65
2022-08-22T10:07:44.260Z,26.68
2022-08-22T10:08:46.067Z,26.64
2022-08-22T10:09:46.267Z,26.64
2022-08-22T10:10:44.380Z,26.64
2022-08-22T10:11:44.420Z,26.71
2022-08-22T10:12:44.736Z,26.65
2022-08-22T10:13:44.500Z,26.69
2022-08-22T10:14:50.527Z,26.84
2022-08-22T10:15:44.582Z,26.84
2022-08-22T10:16:44.619Z,26.87
2022-08-22T10:17:44.662Z,26.90
2022-08-22T10:18:52.843Z,26.87
2022-08-22T10:19:44.742Z,26.94
2022-08-22T10:20:44.820Z,26.97
2022-08-22T10:21:44.822Z,27.05
2022-08-22T10:22:44.861Z,27.05
2022-08-22T10:23:45.931Z,27.12
2022-08-22T10:24:44.942Z,27.12
2022-08-22T10:25:44.983Z,27.11
2022-08-22T10:26:45.022Z,27.21
2022-08-22T10:27:45.063Z,27.15
2022-08-22T10:28:45.102Z,27.20
2022-08-22T10:29:45.144Z,27.18
2022-08-22T10:30:45.185Z,27.27
2022-08-22T10:31:58.768Z,27.34
2022-08-22T10:32:45.297Z,27.30
2022-08-22T10:33:45.307Z,27.34
2022-08-22T10:34:45.349Z,27.40
2022-08-22T10:35:45.389Z,27.38
2022-08-22T10:36:45.427Z,27.45
2022-08-22T10:37:45.930Z,27.52
2022-08-22T10:38:46.820Z,27.53
2022-08-22T10:39:45.621Z,27.69
2022-08-22T10:40:45.590Z,27.68
2022-08-22T10:41:45.635Z,27.78
2022-08-22T10:42:45.671Z,27.76
2022-08-22T10:43:45.715Z,27.80
2022-08-22T10:44:45.756Z,27.80
2022-08-22T10:45:45.793Z,27.90
2022-08-22T10:46:45.835Z,27.95
2022-08-22T10:47:45.878Z,27.99
2022-08-22T10:48:45.912Z,28.05
2022-08-22T10:49:45.962Z,28.17
2022-08-22T10:50:45.993Z,28.20
2022-08-22T10:51:46.036Z,28.18
2022-08-22T10:52:46.076Z,28.21
2022-08-22T10:53:46.117Z,28.25
2022-08-22T10:54:46.167Z,28.28
2022-08-22T10:55:46.206Z,28.28
2022-08-22T10:56:46.245Z,28.28
2022-08-22T10:57:50.706Z,28.30
2022-08-22T10:58:46.321Z,28.33
2022-08-22T10:59:46.363Z,28.32
2022-08-22T11:00:50.057Z,28.38
2022-08-22T11:01:46.493Z,28.32
2022-08-22T11:02:46.487Z,28.35
2022-08-22T11:03:46.530Z,28.40
2022-08-22T11:04:46.570Z,28.43
2022-08-22T11:05:50.089Z,28.46
2022-08-22T11:06:46.649Z,28.38
2022-08-22T11:07:48.591Z,28.57
2022-08-22T11:08:46.734Z,28.57
2022-08-22T11:09:46.774Z,28.61
2022-08-22T11:10:46.813Z,28.70
2022-08-22T11:11:46.854Z,28.64
2022-08-22T11:12:46.893Z,28.62
2022-08-22T11:13:46.945Z,28.70
2022-08-22T11:14:46.975Z,28.76
2022-08-22T11:15:47.019Z,28.80
2022-08-22T11:18:01.729Z,28.85
2022-08-22T11:19:04.925Z,28.83
2022-08-22T11:20:54.903Z,28.77
2022-08-22T11:21:54.937Z,28.83
2022-08-22T11:24:00.472Z,28.87
2022-08-22T11:25:02.447Z,28.92
2022-08-22T11:27:03.127Z,28.98
2022-08-22T11:28:03.164Z,29.08
2022-08-22T11:30:07.251Z,29.14
2022-08-22T11:31:07.547Z,29.15
2022-08-22T11:33:00.939Z,29.23
2022-08-22T11:34:00.495Z,29.30
2022-08-22T11:35:53.679Z,29.44
2022-08-22T11:36:53.715Z,29.37
2022-08-22T11:38:46.979Z,29.42
2022-08-22T11:39:47.187Z,29.44
2022-08-22T11:41:40.165Z,29.42
2022-08-22T11:42:47.506Z,29.52
2022-08-22T11:44:34.516Z,29.45
2022-08-22T11:45:33.419Z,29.51
2022-08-22T11:47:37.492Z,29.47
2022-08-22T11:48:37.531Z,29.44
2022-08-22T11:50:30.741Z,29.49
2022-08-22T11:51:34.262Z,29.54
2022-08-22T11:53:23.941Z,29.67
2022-08-22T11:54:31.143Z,29.67
2022-08-22T11:56:28.061Z,29.64
2022-08-22T11:57:28.095Z,29.63
2022-08-22T11:59:22.501Z,29.67
2022-08-22T12:00:21.341Z,29.67
2022-08-22T12:02:14.566Z,29.66
2022-08-22T12:03:14.546Z,29.60
2022-08-22T12:05:07.537Z,29.58
2022-08-22T12:06:07.787Z,29.48
2022-08-22T12:08:00.744Z,29.48
2022-08-22T12:09:00.783Z,29.54
2022-08-22T12:11:04.857Z,29.42
2022-08-22T12:12:04.892Z,29.48
2022-08-22T12:14:04.027Z,29.44
2022-08-22T12:14:58.110Z,29.32
2022-08-22T12:16:51.293Z,29.42
2022-08-22T12:17:59.918Z,29.37
2022-08-22T12:20:05.660Z,29.35
2022-08-22T12:20:45.291Z,29.42
2022-08-22T12:22:37.721Z,29.30
2022-08-22T12:23:43.355Z,29.32
2022-08-22T12:25:30.737Z,29.26
2022-08-22T12:26:30.780Z,29.21
2022-08-22T12:28:34.847Z,29.12
2022-08-22T12:29:40.040Z,29.11
2022-08-22T12:31:27.878Z,29.07
2022-08-22T12:32:27.992Z,29.10
2022-08-22T12:34:21.092Z,28.95
2022-08-22T12:35:29.698Z,29.05
2022-08-22T12:37:14.310Z,28.97
2022-08-22T12:38:28.453Z,28.98
2022-08-22T12:40:07.588Z,28.97
2022-08-22T12:41:08.101Z,29.15
2022-08-22T12:43:11.675Z,29.08
2022-08-22T12:44:16.466Z,29.11
2022-08-22T12:46:04.935Z,29.10
2022-08-22T12:47:04.943Z,29.11
2022-08-22T12:48:58.108Z,29.10
2022-08-22T12:49:58.146Z,29.15
2022-08-22T12:52:04.178Z,29.08
2022-08-22T12:53:02.269Z,29.07
2022-08-22T12:54:55.319Z,29.08
2022-08-22T12:55:55.319Z,29.12
2022-08-22T12:57:50.499Z,29.11
2022-08-22T12:58:51.176Z,29.11
2022-08-22T13:00:41.853Z,29.17
2022-08-22T13:01:43.514Z,29.20
2022-08-22T13:03:34.951Z,29.20
2022-08-22T13:04:34.985Z,29.17
2022-08-22T13:06:28.172Z,29.17
2022-08-22T13:07:28.207Z,29.11
2022-08-22T13:09:28.623Z,29.11
2022-08-22T13:10:21.425Z,29.15
2022-08-22T13:12:14.607Z,29.10
2022-08-22T13:13:14.647Z,29.08
2022-08-22T13:15:10.900Z,29.10
2022-08-22T13:16:07.715Z,29.07
2022-08-22T13:18:18.849Z,29.07
2022-08-22T13:19:00.892Z,28.97
2022-08-22T13:21:04.969Z,28.98
2022-08-22T13:22:04.999Z,28.83
2022-08-22T13:24:10.565Z,28.89
2022-08-22T13:25:09.132Z,28.88
2022-08-22T13:27:02.366Z,28.89
2022-08-22T13:28:02.418Z,28.87
2022-08-22T13:29:55.577Z,28.80
2022-08-22T13:30:55.576Z,28.80
2022-08-22T13:32:48.752Z,28.72
2022-08-22T13:33:48.876Z,28.64
2022-08-22T13:35:44.584Z,28.61
2022-08-22T13:36:41.998Z,28.65
2022-08-22T13:38:35.264Z,28.55
2022-08-22T13:39:35.251Z,28.43
2022-08-22T13:41:28.436Z,28.40
2022-08-22T13:42:30.761Z,28.33
2022-08-22T13:44:21.686Z,28.24
2022-08-22T13:45:21.685Z,28.28
2022-08-22T13:47:15.014Z,28.15
2022-08-22T13:48:15.001Z,28.08
2022-08-22T13:50:08.163Z,27.96
2022-08-22T13:51:08.596Z,27.88
2022-08-22T13:53:01.337Z,27.78
2022-08-22T13:54:02.170Z,27.87
2022-08-22T13:55:54.556Z,27.86